CYED/YED METAR and TAF weather

Enter ICAO airport designator
Station Type Date Time Source
CYED METAR 2024/07/12 21:00 UTC NOAA

CYED 122100Z 27010KT 15SM FEW070 OVC250 23/05 A3006 RMK CU1CI7 DENSITY ALT 3709FT WIND EST LAST OBS /NEXT 151300 UTC SLP179


Station Type Date Time Source
CYED Decoded METAR 2024/07/12 21:00 UTC NOAA

Edmonton Namao Alta., Canada (CYED) 53-40N 113-28W 688M
Jul 12, 2024 - 05:00 PM EDT / 2024.07.12 2100 UTC
Wind: from the W (270 degrees) at 12 MPH (10 KT):0
Visibility: 15 mile(s):0
Sky conditions: overcast
Temperature: 73 F (23 C)
Dew Point: 41 F (5 C)
Relative Humidity: 31%
Pressure (altimeter): 30.06 in. Hg (1017 hPa)
ob: CYED 122100Z 27010KT 15SM FEW070 OVC250 23/05 A3006 RMK CU1CI7 DENSITY ALT 3709FT WIND EST LAST OBS /NEXT 151300 UTC SLP179
cycle: 21

Station Type Date Time Source
CYED TAF 2024/07/12 18:42 UTC NOAA